Terminal Aerodrome Forecast
Issued by NWS

Home | Current Version | Previous Version | Text Only | Print | Product List | Glossary On
Versions: 1 2 3 4 5 6 7 8 9 10 11 12 13 14 15 16 17 18 19 20
122
FTUS46 KMTR 132352
TAFMRY
TAF
KMRY 132352Z 1400/1424 29006KT P6SM SKC
     FM140400 VRB03KT P6SM SKC
     FM141600 32004KT 6SM HZ FEW002
     FM141800 31007KT P6SM SKC=

USA.gov is the U.S. government's official web portal to all federal, state and local government web resources and services.